createdAt,value
2022-09-12T00:00:33.601Z,9.443692
2022-09-12T00:01:32.631Z,9.443678
2022-09-12T00:02:33.314Z,9.443693
2022-09-12T00:03:32.563Z,9.443698
2022-09-12T00:04:32.549Z,9.443660
2022-09-12T00:05:32.569Z,9.443672
2022-09-12T00:06:33.342Z,9.443700
2022-09-12T00:07:32.548Z,9.443674
2022-09-12T00:08:32.554Z,9.443709
2022-09-12T00:09:33.309Z,9.443709
2022-09-12T00:10:32.521Z,9.443676
2022-09-12T00:11:32.578Z,9.443686
2022-09-12T00:12:32.526Z,9.443738
2022-09-12T00:13:32.529Z,9.443758
2022-09-12T00:14:32.500Z,9.443751
2022-09-12T00:15:32.514Z,9.443753
2022-09-12T00:16:32.524Z,9.443757
2022-09-12T00:17:32.469Z,9.443707
2022-09-12T00:18:32.553Z,9.443754
2022-09-12T00:19:32.457Z,9.443773
2022-09-12T00:20:32.445Z,9.443803
2022-09-12T00:21:32.460Z,9.443841
2022-09-12T00:22:32.461Z,9.443844
2022-09-12T00:23:32.434Z,9.443853
2022-09-12T00:24:32.421Z,9.443813
2022-09-12T00:25:32.417Z,9.443744
2022-09-12T00:26:32.425Z,9.443740
2022-09-12T00:27:32.405Z,9.443781
2022-09-12T00:28:32.397Z,9.443781
2022-09-12T00:29:32.437Z,9.443786
2022-09-12T00:30:32.401Z,9.443747
2022-09-12T00:31:32.527Z,9.443686
2022-09-12T00:32:32.405Z,9.443687
2022-09-12T00:33:32.376Z,9.443709
2022-09-12T00:34:32.365Z,9.443715
2022-09-12T00:35:32.371Z,9.443746
2022-09-12T00:36:32.353Z,9.443738
2022-09-12T00:37:32.345Z,9.443701
2022-09-12T00:38:32.330Z,9.443667
2022-09-12T00:39:32.337Z,9.443670
2022-09-12T00:40:32.381Z,9.443684
2022-09-12T00:41:32.336Z,9.443711
2022-09-12T00:42:32.381Z,9.443706
2022-09-12T00:43:32.326Z,9.443694
2022-09-12T00:44:32.305Z,9.443643
2022-09-12T00:45:32.360Z,9.443623
2022-09-12T00:46:32.296Z,9.443656
2022-09-12T00:47:32.310Z,9.443644
2022-09-12T00:48:32.295Z,9.443645
2022-09-12T00:49:32.308Z,9.443642
2022-09-12T00:50:32.280Z,9.443639
2022-09-12T00:51:32.253Z,9.443574
2022-09-12T00:52:32.285Z,9.443535
2022-09-12T00:54:04.676Z,9.443540
2022-09-12T00:54:32.233Z,9.443606
2022-09-12T00:55:32.234Z,9.443645
2022-09-12T00:56:32.240Z,9.443549
2022-09-12T00:57:32.224Z,9.443596
2022-09-12T00:58:32.202Z,9.443634
2022-09-12T00:59:32.236Z,9.443531
2022-09-12T01:00:32.200Z,9.443630
2022-09-12T01:01:32.876Z,9.443543
2022-09-12T01:02:33.179Z,9.443616
2022-09-12T01:03:32.172Z,9.443735
2022-09-12T01:04:32.192Z,9.443658
2022-09-12T01:05:32.170Z,9.443639
2022-09-12T01:06:32.160Z,9.443627
2022-09-12T01:07:34.063Z,9.443647
2022-09-12T01:08:33.153Z,9.443682
2022-09-12T01:09:32.147Z,9.443596
2022-09-12T01:10:32.180Z,9.443448
2022-09-12T01:11:32.124Z,9.443489
2022-09-12T01:12:32.120Z,9.443583
2022-09-12T01:13:32.116Z,9.443679
2022-09-12T01:14:32.120Z,9.443662
2022-09-12T01:15:32.103Z,9.443663
2022-09-12T01:16:32.141Z,9.443711
2022-09-12T01:17:32.088Z,9.443672
2022-09-12T01:18:32.095Z,9.443597
2022-09-12T01:19:32.107Z,9.443522
2022-09-12T01:20:32.072Z,9.443612
2022-09-12T01:21:32.112Z,9.443636
2022-09-12T01:22:32.058Z,9.443587
2022-09-12T01:23:32.044Z,9.443487
2022-09-12T01:24:32.059Z,9.443607
2022-09-12T01:25:32.028Z,9.443598
2022-09-12T01:26:32.043Z,9.443535
2022-09-12T01:27:32.032Z,9.443544
2022-09-12T01:28:32.024Z,9.443660
2022-09-12T01:29:32.020Z,9.443657
2022-09-12T01:30:32.019Z,9.443836
2022-09-12T01:31:32.008Z,9.443718
2022-09-12T01:32:31.992Z,9.443662
2022-09-12T01:33:31.994Z,9.443575
2022-09-12T01:34:31.994Z,9.443612
2022-09-12T01:35:31.966Z,9.443933
2022-09-12T01:36:31.982Z,9.443877
2022-09-12T01:37:31.968Z,9.443744
2022-09-12T01:38:31.964Z,9.443744
2022-09-12T01:39:31.959Z,9.443730
2022-09-12T01:40:32.001Z,9.443656
2022-09-12T01:41:31.953Z,9.443705
2022-09-12T01:42:31.942Z,9.443706
2022-09-12T01:43:31.937Z,9.443758
2022-09-12T01:44:31.937Z,9.443828
2022-09-12T01:45:31.971Z,9.443808
2022-09-12T01:46:31.936Z,9.443812
2022-09-12T01:47:31.915Z,9.443727
2022-09-12T01:48:31.924Z,9.443767
2022-09-12T01:49:31.898Z,9.443794
2022-09-12T01:50:31.909Z,9.443767
2022-09-12T01:51:31.889Z,9.443752
2022-09-12T01:52:31.871Z,9.443778
2022-09-12T01:53:31.884Z,9.443766
2022-09-12T01:54:31.863Z,9.443797
2022-09-12T01:55:31.900Z,9.443819
2022-09-12T01:56:31.859Z,9.443801
2022-09-12T01:57:31.851Z,9.443766
2022-09-12T01:58:31.855Z,9.443815
2022-09-12T01:59:31.843Z,9.443750
2022-09-12T02:00:31.851Z,9.443772
2022-09-12T02:01:31.856Z,9.443768
2022-09-12T02:02:31.819Z,9.443753
2022-09-12T02:03:31.816Z,9.443763
2022-09-12T02:04:34.228Z,9.443797
2022-09-12T02:05:32.821Z,9.443813
2022-09-12T02:06:31.807Z,9.443826
2022-09-12T02:07:31.852Z,9.443811
2022-09-12T02:08:31.790Z,9.443796
2022-09-12T02:09:31.792Z,9.443764
2022-09-12T02:10:32.661Z,9.443761
2022-09-12T02:11:32.779Z,9.443788
2022-09-12T02:12:31.781Z,9.443812
2022-09-12T02:13:31.766Z,9.443793
2022-09-12T02:14:31.755Z,9.443747
2022-09-12T02:15:31.750Z,9.443732
2022-09-12T02:16:31.782Z,9.443679
2022-09-12T02:17:31.739Z,9.443743
2022-09-12T02:18:31.727Z,9.443743
2022-09-12T02:19:31.710Z,9.443681
2022-09-12T02:20:47.281Z,9.443697
2022-09-12T02:21:33.734Z,9.443645
2022-09-12T02:22:31.722Z,9.443675
2022-09-12T02:23:31.695Z,9.443680
2022-09-12T02:24:31.693Z,9.443733
2022-09-12T02:25:31.714Z,9.443767
2022-09-12T02:26:31.674Z,9.443745
2022-09-12T02:27:31.670Z,9.443723
2022-09-12T02:28:31.671Z,9.443681
2022-09-12T02:29:31.663Z,9.443620
2022-09-12T02:30:31.694Z,9.443648
2022-09-12T02:31:31.646Z,9.443654
2022-09-12T02:32:31.687Z,9.443666
2022-09-12T02:33:31.665Z,9.443657
2022-09-12T02:34:31.626Z,9.443734
2022-09-12T02:35:31.634Z,9.443727
2022-09-12T02:36:31.617Z,9.443711
2022-09-12T02:37:31.611Z,9.443718
2022-09-12T02:38:31.658Z,9.443753
2022-09-12T02:39:31.586Z,9.443800
2022-09-12T02:40:31.586Z,9.443778
2022-09-12T02:41:31.574Z,9.443714
2022-09-12T02:42:31.579Z,9.443744
2022-09-12T02:43:31.563Z,9.443743
2022-09-12T02:44:31.562Z,9.443713
2022-09-12T02:45:31.579Z,9.443657
2022-09-12T02:46:31.534Z,9.443787
2022-09-12T02:47:31.538Z,9.443742
2022-09-12T02:48:31.540Z,9.443790
2022-09-12T02:49:31.536Z,9.443716
2022-09-12T02:50:31.525Z,9.443766
2022-09-12T02:51:31.524Z,9.443749
2022-09-12T02:52:31.507Z,9.443660
2022-09-12T02:53:31.494Z,9.443665
2022-09-12T02:54:31.507Z,9.443738
2022-09-12T02:55:31.495Z,9.443679
2022-09-12T02:56:31.475Z,9.443648
2022-09-12T02:57:31.463Z,9.443709
2022-09-12T02:58:31.463Z,9.443666
2022-09-12T02:59:31.457Z,9.443750
2022-09-12T03:00:31.460Z,9.443719
2022-09-12T03:01:31.489Z,9.443775
2022-09-12T03:02:31.439Z,9.443731
2022-09-12T03:03:31.448Z,9.443727
2022-09-12T03:04:31.418Z,9.443717
2022-09-12T03:05:31.428Z,9.443722
2022-09-12T03:06:31.417Z,9.443748
2022-09-12T03:07:31.394Z,9.443707
2022-09-12T03:08:31.401Z,9.443740
2022-09-12T03:09:31.459Z,9.443797
2022-09-12T03:10:31.403Z,9.443764
2022-09-12T03:11:31.383Z,9.443810
2022-09-12T03:12:31.354Z,9.443653
2022-09-12T03:13:31.363Z,9.443598
2022-09-12T03:14:31.350Z,9.443747
2022-09-12T03:15:31.356Z,9.443833
2022-09-12T03:16:31.372Z,9.443830
2022-09-12T03:17:31.350Z,9.443733
2022-09-12T03:18:31.322Z,9.443733
2022-09-12T03:19:31.309Z,9.443580
2022-09-12T03:20:31.313Z,9.443590
2022-09-12T03:21:31.315Z,9.443579
2022-09-12T03:22:31.297Z,9.443558
2022-09-12T03:23:31.296Z,9.443661
2022-09-12T03:24:31.277Z,9.443734
2022-09-12T03:25:31.272Z,9.443753
2022-09-12T03:26:31.285Z,9.443626
2022-09-12T03:27:31.261Z,9.443420
2022-09-12T03:28:31.254Z,9.443425
2022-09-12T03:29:31.243Z,9.443645
2022-09-12T03:30:31.285Z,9.443521
2022-09-12T03:31:31.246Z,9.443650
2022-09-12T03:32:31.270Z,9.443569
2022-09-12T03:33:31.261Z,9.443566
2022-09-12T03:34:31.226Z,9.443458
2022-09-12T03:35:31.213Z,9.443659
2022-09-12T03:36:31.196Z,9.443843
2022-09-12T03:37:31.201Z,9.443698
2022-09-12T03:38:31.203Z,9.443521
2022-09-12T03:39:31.185Z,9.443467
2022-09-12T03:40:31.168Z,9.443473
2022-09-12T03:41:31.173Z,9.443540
2022-09-12T03:42:31.172Z,9.443666
2022-09-12T03:43:32.163Z,9.443527
2022-09-12T03:44:31.151Z,9.443437
2022-09-12T03:45:31.213Z,9.444250
2022-09-12T03:46:31.180Z,9.444031
2022-09-12T03:47:31.143Z,9.443341
2022-09-12T03:48:31.114Z,9.442929
2022-09-12T03:49:32.133Z,9.443190
2022-09-12T03:50:31.097Z,9.443406
2022-09-12T03:51:31.137Z,9.443886
2022-09-12T03:52:31.096Z,9.443542
2022-09-12T03:53:31.096Z,9.443684
2022-09-12T03:54:31.087Z,9.443554
2022-09-12T03:55:31.068Z,9.443477
2022-09-12T03:56:31.070Z,9.443549
2022-09-12T03:57:32.079Z,9.443556
2022-09-12T03:58:31.076Z,9.443381
2022-09-12T03:59:31.080Z,9.443694
2022-09-12T04:00:31.041Z,9.443412
2022-09-12T04:01:31.087Z,9.443597
2022-09-12T04:02:31.095Z,9.443726
2022-09-12T04:03:31.018Z,9.443288
2022-09-12T04:04:31.041Z,9.442602
2022-09-12T04:05:31.009Z,9.443190
2022-09-12T04:06:31.004Z,9.443463
2022-09-12T04:07:31.001Z,9.443219
2022-09-12T04:08:31.004Z,9.443083
2022-09-12T04:09:30.992Z,9.443327
2022-09-12T04:10:30.987Z,9.443435
2022-09-12T04:11:30.967Z,9.443785
2022-09-12T04:12:30.974Z,9.443996
2022-09-12T04:13:30.975Z,9.443591
2022-09-12T04:14:30.951Z,9.443352
2022-09-12T04:15:30.946Z,9.443527
2022-09-12T04:16:30.944Z,9.443347
2022-09-12T04:17:30.955Z,9.443367
2022-09-12T04:18:30.962Z,9.443391
2022-09-12T04:19:30.910Z,9.443404
2022-09-12T04:20:30.901Z,9.443456
2022-09-12T04:21:30.906Z,9.443492
2022-09-12T04:22:30.886Z,9.443529
2022-09-12T04:23:30.892Z,9.443555
2022-09-12T04:24:30.889Z,9.443583
2022-09-12T04:25:30.862Z,9.443613
2022-09-12T04:26:30.866Z,9.443666
2022-09-12T04:27:30.858Z,9.443560
2022-09-12T04:28:30.845Z,9.443436
2022-09-12T04:29:30.849Z,9.443550
2022-09-12T04:30:30.881Z,9.443633
2022-09-12T04:31:30.847Z,9.443530
2022-09-12T04:32:30.817Z,9.443310
2022-09-12T04:33:30.808Z,9.443434
2022-09-12T04:34:30.813Z,9.443415
2022-09-12T04:35:30.801Z,9.443377
2022-09-12T04:36:30.797Z,9.443257
2022-09-12T04:37:30.778Z,9.443364
2022-09-12T04:38:30.828Z,9.443281
2022-09-12T04:39:30.785Z,9.443469
2022-09-12T04:40:30.773Z,9.443582
2022-09-12T04:41:30.791Z,9.443617
2022-09-12T04:42:30.759Z,9.443594
2022-09-12T04:43:30.752Z,9.443615
2022-09-12T04:44:30.769Z,9.443543
2022-09-12T04:45:30.772Z,9.443433
2022-09-12T04:46:30.728Z,9.443616
2022-09-12T04:47:31.325Z,9.443561
2022-09-12T04:48:32.124Z,9.443597
2022-09-12T04:49:30.705Z,9.443639
2022-09-12T04:50:30.743Z,9.443671
2022-09-12T04:51:30.740Z,9.443537
2022-09-12T04:52:30.724Z,9.443447
2022-09-12T04:53:30.684Z,9.443398
2022-09-12T04:54:30.685Z,9.443480
2022-09-12T04:55:30.698Z,9.443388
2022-09-12T04:56:30.673Z,9.443492
2022-09-12T04:57:31.239Z,9.443414
2022-09-12T04:58:30.653Z,9.443346
2022-09-12T04:59:30.648Z,9.443510
2022-09-12T05:00:30.742Z,9.443453
2022-09-12T05:01:30.773Z,9.443487
2022-09-12T05:02:30.662Z,9.443512
2022-09-12T05:03:30.667Z,9.443598
2022-09-12T05:04:30.610Z,9.443604
2022-09-12T05:05:30.791Z,9.443603
2022-09-12T05:06:30.657Z,9.443568
2022-09-12T05:07:30.666Z,9.443646
2022-09-12T05:08:30.594Z,9.443468
2022-09-12T05:09:30.574Z,9.443693
2022-09-12T05:10:30.580Z,9.443604
2022-09-12T05:11:52.989Z,9.443499
2022-09-12T05:12:32.547Z,9.443451
2022-09-12T05:13:30.560Z,9.443357
2022-09-12T05:14:30.569Z,9.443613
2022-09-12T05:15:30.528Z,9.443509
2022-09-12T05:16:30.608Z,9.443592
2022-09-12T05:17:30.530Z,9.443619
2022-09-12T05:18:30.520Z,9.443634
2022-09-12T05:19:30.541Z,9.443707
2022-09-12T05:20:30.517Z,9.443737
2022-09-12T05:21:30.511Z,9.443670
2022-09-12T05:22:30.497Z,9.443632
2022-09-12T05:23:30.471Z,9.443637
2022-09-12T05:24:30.484Z,9.443655
2022-09-12T05:25:30.492Z,9.443629
2022-09-12T05:26:30.472Z,9.443635
2022-09-12T05:27:30.452Z,9.443635
2022-09-12T05:28:30.444Z,9.443645
2022-09-12T05:29:30.429Z,9.443671
2022-09-12T05:30:30.473Z,9.443664
2022-09-12T05:31:31.339Z,9.443667
2022-09-12T05:32:30.449Z,9.443700
2022-09-12T05:33:30.427Z,9.443680
2022-09-12T05:34:30.405Z,9.443687
2022-09-12T05:35:30.393Z,9.443721
2022-09-12T05:36:30.444Z,9.443742
2022-09-12T05:37:30.412Z,9.443729
2022-09-12T05:38:30.372Z,9.443671
2022-09-12T05:39:30.377Z,9.443680
2022-09-12T05:40:30.353Z,9.443691
2022-09-12T05:41:30.356Z,9.443759
2022-09-12T05:42:30.370Z,9.443714
2022-09-12T05:43:31.361Z,9.443734
2022-09-12T05:44:30.333Z,9.443727
2022-09-12T05:45:30.355Z,9.443753
2022-09-12T05:46:30.320Z,9.443768
2022-09-12T05:47:30.401Z,9.443734
2022-09-12T05:48:30.320Z,9.443696
2022-09-12T05:49:30.310Z,9.443703
2022-09-12T05:50:30.340Z,9.443707
2022-09-12T05:51:30.306Z,9.443710
2022-09-12T05:52:30.299Z,9.443643
2022-09-12T05:53:30.299Z,9.443662
2022-09-12T05:54:31.715Z,9.443651
2022-09-12T05:55:31.279Z,9.443613
2022-09-12T05:56:30.260Z,9.443612
2022-09-12T05:57:31.251Z,9.443709
2022-09-12T05:58:30.301Z,9.443729
2022-09-12T05:59:30.227Z,9.443739
2022-09-12T06:00:33.381Z,9.443731
2022-09-12T06:01:31.338Z,9.443693
2022-09-12T06:02:30.255Z,9.443694
2022-09-12T06:03:30.234Z,9.443672
2022-09-12T06:04:30.211Z,9.443646
2022-09-12T06:05:30.835Z,9.443709
2022-09-12T06:06:30.201Z,9.443634
2022-09-12T06:07:30.179Z,9.443678
2022-09-12T06:08:30.199Z,9.443638
2022-09-12T06:09:30.178Z,9.443727
2022-09-12T06:10:30.163Z,9.443786
2022-09-12T06:11:30.223Z,9.443773
2022-09-12T06:12:30.155Z,9.443735
2022-09-12T06:13:30.179Z,9.443717
2022-09-12T06:14:30.176Z,9.443665
2022-09-12T06:15:30.202Z,9.443884
2022-09-12T06:16:30.166Z,9.443815
2022-09-12T06:17:30.114Z,9.443759
2022-09-12T06:18:30.113Z,9.443769
2022-09-12T06:19:30.119Z,9.443781
2022-09-12T06:20:30.121Z,9.443939
2022-09-12T06:21:30.149Z,9.443714
2022-09-12T06:22:30.134Z,9.443756
2022-09-12T06:23:30.077Z,9.443754
2022-09-12T06:24:30.085Z,9.443762
2022-09-12T06:25:30.054Z,9.443782
2022-09-12T06:26:30.070Z,9.443793
2022-09-12T06:27:30.065Z,9.443823
2022-09-12T06:28:30.052Z,9.443729
2022-09-12T06:29:30.046Z,9.443728
2022-09-12T06:30:30.068Z,9.443701
2022-09-12T06:31:30.025Z,9.443724
2022-09-12T06:32:30.022Z,9.443758
2022-09-12T06:33:30.002Z,9.443747
2022-09-12T06:34:30.644Z,9.443733
2022-09-12T06:35:30.007Z,9.443738
2022-09-12T06:36:30.006Z,9.443707
2022-09-12T06:37:29.985Z,9.443739
2022-09-12T06:38:30.021Z,9.443730
2022-09-12T06:39:29.976Z,9.443662
2022-09-12T06:40:29.962Z,9.443723
2022-09-12T06:41:29.966Z,9.443727
2022-09-12T06:42:29.959Z,9.443686
2022-09-12T06:43:29.949Z,9.443682
2022-09-12T06:44:29.958Z,9.443538
2022-09-12T06:45:29.935Z,9.443761
2022-09-12T06:46:29.916Z,9.443726
2022-09-12T06:47:29.919Z,9.443489
2022-09-12T06:48:29.912Z,9.443533
2022-09-12T06:49:29.919Z,9.443741
2022-09-12T06:50:29.916Z,9.443686
2022-09-12T06:51:29.937Z,9.443688
2022-09-12T06:52:29.939Z,9.443805
2022-09-12T06:53:29.884Z,9.443818
2022-09-12T06:54:29.873Z,9.443717
2022-09-12T06:56:01.845Z,9.443787
2022-09-12T06:56:29.869Z,9.443660
2022-09-12T06:57:29.857Z,9.443688
2022-09-12T06:58:29.854Z,9.443776
2022-09-12T06:59:29.844Z,9.443733
2022-09-12T07:00:29.849Z,9.443650
2022-09-12T07:01:29.917Z,9.443765
2022-09-12T07:02:29.839Z,9.443712
2022-09-12T07:03:29.825Z,9.443665
2022-09-12T07:04:29.811Z,9.443622
2022-09-12T07:05:29.822Z,9.443730
2022-09-12T07:06:29.831Z,9.443737
2022-09-12T07:07:29.781Z,9.443667
2022-09-12T07:08:29.805Z,9.443700
2022-09-12T07:09:29.777Z,9.443542
2022-09-12T07:10:29.797Z,9.443647
2022-09-12T07:11:29.763Z,9.443675
2022-09-12T07:12:29.781Z,9.443737
2022-09-12T07:13:29.757Z,9.443714
2022-09-12T07:14:29.760Z,9.443714
2022-09-12T07:15:29.752Z,9.443629
2022-09-12T07:16:30.409Z,9.443700
2022-09-12T07:17:29.778Z,9.443814
2022-09-12T07:18:29.745Z,9.443790
2022-09-12T07:19:29.719Z,9.443714
2022-09-12T07:20:29.761Z,9.443838
2022-09-12T07:21:29.733Z,9.443744
2022-09-12T07:22:30.709Z,9.443727
2022-09-12T07:23:29.694Z,9.443698
2022-09-12T07:24:29.685Z,9.443697
2022-09-12T07:25:29.697Z,9.443707
2022-09-12T07:26:29.690Z,9.443725
2022-09-12T07:27:29.728Z,9.443748
2022-09-12T07:28:29.672Z,9.443791
2022-09-12T07:29:37.917Z,9.443758
2022-09-12T07:30:31.691Z,9.443745
2022-09-12T07:31:29.676Z,9.443783
2022-09-12T07:32:30.376Z,9.443766
2022-09-12T07:33:29.632Z,9.443754
2022-09-12T07:34:29.627Z,9.443763
2022-09-12T07:35:29.634Z,9.443797
2022-09-12T07:36:29.623Z,9.443734
2022-09-12T07:37:29.615Z,9.443812
2022-09-12T07:38:30.371Z,9.443719
2022-09-12T07:39:29.595Z,9.443738
2022-09-12T07:40:29.586Z,9.443783
2022-09-12T07:41:29.595Z,9.443753
2022-09-12T07:42:29.578Z,9.443680
2022-09-12T07:43:29.570Z,9.443764
2022-09-12T07:44:29.573Z,9.443629
2022-09-12T07:45:29.562Z,9.443740
2022-09-12T07:46:29.573Z,9.443711
2022-09-12T07:47:29.537Z,9.443761
2022-09-12T07:48:29.538Z,9.443825
2022-09-12T07:49:29.529Z,9.443713
2022-09-12T07:50:29.526Z,9.443700
2022-09-12T07:51:29.552Z,9.443704
2022-09-12T07:52:29.526Z,9.443731
2022-09-12T07:53:29.528Z,9.443831
2022-09-12T07:54:29.495Z,9.443938
2022-09-12T07:55:29.511Z,9.443851
2022-09-12T07:56:31.889Z,9.443727
2022-09-12T07:57:30.498Z,9.443757
2022-09-12T07:58:29.498Z,9.443794
2022-09-12T07:59:51.363Z,9.443790
2022-09-12T08:00:31.481Z,9.443763
2022-09-12T08:01:29.523Z,9.443718
2022-09-12T08:02:29.604Z,9.443790
2022-09-12T08:03:29.465Z,9.443799
2022-09-12T08:04:29.455Z,9.443703
2022-09-12T08:05:29.446Z,9.443736
2022-09-12T08:06:29.474Z,9.443720
2022-09-12T08:07:29.466Z,9.443791
2022-09-12T08:08:29.462Z,9.443830
2022-09-12T08:09:29.403Z,9.443737
2022-09-12T08:10:29.422Z,9.443641
2022-09-12T08:11:29.425Z,9.443750
2022-09-12T08:12:29.481Z,9.443610
2022-09-12T08:13:29.398Z,9.443701
2022-09-12T08:14:29.406Z,9.443714
2022-09-12T08:15:29.442Z,9.443650
2022-09-12T08:16:29.378Z,9.443710
2022-09-12T08:17:29.394Z,9.443769
2022-09-12T08:18:29.361Z,9.443716
2022-09-12T08:19:29.358Z,9.443700
2022-09-12T08:20:29.445Z,9.443659
2022-09-12T08:21:29.346Z,9.443663
2022-09-12T08:22:29.386Z,9.443665
2022-09-12T08:23:29.337Z,9.443722
2022-09-12T08:24:29.351Z,9.443756
2022-09-12T08:25:29.326Z,9.443726
2022-09-12T08:26:29.334Z,9.443661
2022-09-12T08:27:29.322Z,9.443728
2022-09-12T08:28:29.322Z,9.443720
2022-09-12T08:29:29.303Z,9.443727
2022-09-12T08:30:29.308Z,9.443714
2022-09-12T08:31:29.283Z,9.443701
2022-09-12T08:32:29.273Z,9.443748
2022-09-12T08:33:29.278Z,9.443747
2022-09-12T08:34:29.273Z,9.443722
2022-09-12T08:35:29.297Z,9.443746
2022-09-12T08:36:29.257Z,9.443766
2022-09-12T08:37:29.245Z,9.443724
2022-09-12T08:38:29.265Z,9.443730
2022-09-12T08:39:29.253Z,9.443707
2022-09-12T08:40:29.243Z,9.443695
2022-09-12T08:41:29.218Z,9.443691
2022-09-12T08:42:29.221Z,9.443713
2022-09-12T08:43:29.206Z,9.443778
2022-09-12T08:44:29.256Z,9.443804
2022-09-12T08:45:29.209Z,9.443649
2022-09-12T08:46:29.249Z,9.443731
2022-09-12T08:47:29.184Z,9.443722
2022-09-12T08:48:29.340Z,9.443825
2022-09-12T08:49:29.204Z,9.443725
2022-09-12T08:50:29.188Z,9.443730
2022-09-12T08:51:29.173Z,9.443756
2022-09-12T08:52:29.148Z,9.443769
2022-09-12T08:53:29.136Z,9.443792
2022-09-12T08:54:29.140Z,9.443810
2022-09-12T08:55:29.128Z,9.443772
2022-09-12T08:56:31.660Z,9.443767
2022-09-12T08:57:30.128Z,9.443765
2022-09-12T08:58:29.106Z,9.443750
2022-09-12T08:59:29.112Z,9.443775
2022-09-12T09:00:29.117Z,9.443745
2022-09-12T09:01:29.135Z,9.443738
2022-09-12T09:02:29.154Z,9.443778
2022-09-12T09:03:29.096Z,9.443813
2022-09-12T09:04:29.140Z,9.443796
2022-09-12T09:05:29.094Z,9.443768
2022-09-12T09:06:29.161Z,9.443770
2022-09-12T09:07:29.069Z,9.443773
2022-09-12T09:08:29.121Z,9.443769
2022-09-12T09:09:29.914Z,9.443763
2022-09-12T09:10:29.026Z,9.443784
2022-09-12T09:11:29.102Z,9.443777
2022-09-12T09:12:29.005Z,9.443729
2022-09-12T09:13:29.002Z,9.443743
2022-09-12T09:14:29.020Z,9.443730
2022-09-12T09:15:29.036Z,9.443728
2022-09-12T09:16:29.002Z,9.443741
2022-09-12T09:17:28.982Z,9.443751
2022-09-12T09:18:29.140Z,9.443743
2022-09-12T09:19:28.988Z,9.443746
2022-09-12T09:20:28.960Z,9.443748
2022-09-12T09:21:28.948Z,9.443779
2022-09-12T09:22:28.957Z,9.443819
2022-09-12T09:23:28.940Z,9.443793
2022-09-12T09:24:28.948Z,9.443730
2022-09-12T09:25:28.935Z,9.443769
2022-09-12T09:26:28.932Z,9.443715
2022-09-12T09:27:40.591Z,9.443660
2022-09-12T09:28:30.943Z,9.443718
2022-09-12T09:29:28.936Z,9.443781
2022-09-12T09:30:28.970Z,9.443800
2022-09-12T09:31:28.957Z,9.443743
2022-09-12T09:32:28.922Z,9.443763
2022-09-12T09:33:28.887Z,9.443787
2022-09-12T09:34:29.400Z,9.443773
2022-09-12T09:35:32.104Z,9.443780
2022-09-12T09:36:29.909Z,9.443684
2022-09-12T09:37:28.904Z,9.443737
2022-09-12T09:38:28.876Z,9.443697
2022-09-12T09:39:28.852Z,9.443717
2022-09-12T09:40:28.856Z,9.443660
2022-09-12T09:41:28.871Z,9.443705
2022-09-12T09:42:28.830Z,9.443726
2022-09-12T09:43:28.830Z,9.443751
2022-09-12T09:44:28.813Z,9.443719
2022-09-12T09:45:28.817Z,9.443805
2022-09-12T09:46:28.842Z,9.443655
2022-09-12T09:47:28.798Z,9.443693
2022-09-12T09:48:28.813Z,9.443716
2022-09-12T09:49:28.801Z,9.443645
2022-09-12T09:50:28.785Z,9.443520
2022-09-12T09:51:28.855Z,9.443493
2022-09-12T09:52:28.771Z,9.443661
2022-09-12T09:53:28.788Z,9.443752
2022-09-12T09:54:28.750Z,9.443753
2022-09-12T09:55:28.738Z,9.443773
2022-09-12T09:56:28.773Z,9.443770
2022-09-12T09:57:28.733Z,9.443683
2022-09-12T09:58:28.735Z,9.443669
2022-09-12T09:59:28.749Z,9.443675
2022-09-12T10:00:28.711Z,9.443715
2022-09-12T10:01:28.738Z,9.443705
2022-09-12T10:02:28.711Z,9.443726
2022-09-12T10:03:28.713Z,9.443748
2022-09-12T10:04:28.725Z,9.443768
2022-09-12T10:05:28.724Z,9.443765
2022-09-12T10:06:28.713Z,9.443752
2022-09-12T10:07:28.701Z,9.443720
2022-09-12T10:08:28.679Z,9.443706
2022-09-12T10:09:28.696Z,9.443670
2022-09-12T10:10:28.659Z,9.443716
2022-09-12T10:11:28.657Z,9.443735
2022-09-12T10:12:28.661Z,9.443736
2022-09-12T10:13:28.634Z,9.443727
2022-09-12T10:14:28.640Z,9.443643
2022-09-12T10:15:28.688Z,9.443632
2022-09-12T10:16:29.405Z,9.443683
2022-09-12T10:17:33.215Z,9.443719
2022-09-12T10:18:30.598Z,9.443734
2022-09-12T10:19:28.649Z,9.443707
2022-09-12T10:20:28.601Z,9.443713
2022-09-12T10:21:28.586Z,9.443718
2022-09-12T10:22:28.586Z,9.443752
2022-09-12T10:23:28.575Z,9.443744
2022-09-12T10:24:28.569Z,9.443746
2022-09-12T10:25:28.620Z,9.443723
2022-09-12T10:26:29.469Z,9.443722
2022-09-12T10:27:28.541Z,9.443766
2022-09-12T10:28:28.546Z,9.443748
2022-09-12T10:29:28.529Z,9.443735
2022-09-12T10:30:28.827Z,9.443688
2022-09-12T10:31:28.548Z,9.443663
2022-09-12T10:32:30.922Z,9.443672
2022-09-12T10:33:29.528Z,9.443670
2022-09-12T10:34:28.503Z,9.443696
2022-09-12T10:35:28.536Z,9.443705
2022-09-12T10:36:28.512Z,9.443672
2022-09-12T10:37:29.440Z,9.443684
2022-09-12T10:38:28.487Z,9.443689
2022-09-12T10:39:28.474Z,9.443686
2022-09-12T10:40:28.471Z,9.443665
2022-09-12T10:41:28.493Z,9.443593
2022-09-12T10:42:28.470Z,9.443624
2022-09-12T10:43:28.456Z,9.443642
2022-09-12T10:44:28.446Z,9.443671
2022-09-12T10:45:28.486Z,9.443699
2022-09-12T10:46:28.523Z,9.443748
2022-09-12T10:47:28.486Z,9.443722
2022-09-12T10:48:28.414Z,9.443689
2022-09-12T10:49:28.450Z,9.443736
2022-09-12T10:50:28.421Z,9.443692
2022-09-12T10:51:28.426Z,9.443703
2022-09-12T10:52:28.426Z,9.443727
2022-09-12T10:53:32.387Z,9.443731
2022-09-12T10:54:30.420Z,9.443714
2022-09-12T10:55:28.489Z,9.443666
2022-09-12T10:56:28.389Z,9.443742
2022-09-12T10:57:28.405Z,9.443783
2022-09-12T10:58:28.379Z,9.443764
2022-09-12T10:59:28.377Z,9.443679
2022-09-12T11:00:28.362Z,9.443695
2022-09-12T11:01:28.411Z,9.443686
2022-09-12T11:02:28.398Z,9.443675
2022-09-12T11:03:29.371Z,9.443712
2022-09-12T11:04:28.338Z,9.443736
2022-09-12T11:05:28.346Z,9.443760
2022-09-12T11:06:28.353Z,9.443737
2022-09-12T11:07:28.360Z,9.443715
2022-09-12T11:08:28.344Z,9.443610
2022-09-12T11:09:28.328Z,9.443660
2022-09-12T11:10:30.191Z,9.443738
2022-09-12T11:11:28.355Z,9.443777
2022-09-12T11:12:28.348Z,9.443750
2022-09-12T11:13:28.311Z,9.443692
2022-09-12T11:14:28.299Z,9.443755
2022-09-12T11:15:28.395Z,9.443727
2022-09-12T11:16:28.309Z,9.443690
2022-09-12T11:17:28.935Z,9.443730
2022-09-12T11:18:29.366Z,9.443712
2022-09-12T11:19:28.269Z,9.443720
2022-09-12T11:20:28.305Z,9.443742
2022-09-12T11:21:28.611Z,9.443642
2022-09-12T11:22:31.757Z,9.443623
2022-09-12T11:23:29.277Z,9.443625
2022-09-12T11:24:28.260Z,9.443700
2022-09-12T11:25:28.276Z,9.443700
2022-09-12T11:26:28.233Z,9.443660
2022-09-12T11:27:28.266Z,9.443734
2022-09-12T11:28:28.265Z,9.443697
2022-09-12T11:29:28.257Z,9.443651
2022-09-12T11:30:28.308Z,9.443671
2022-09-12T11:31:28.226Z,9.443749
2022-09-12T11:32:28.206Z,9.443737
2022-09-12T11:33:28.235Z,9.443617
2022-09-12T11:34:28.194Z,9.443708
2022-09-12T11:35:28.194Z,9.443743
2022-09-12T11:36:28.194Z,9.443717
2022-09-12T11:37:28.222Z,9.443692
2022-09-12T11:38:28.168Z,9.443673
2022-09-12T11:39:28.201Z,9.443612
2022-09-12T11:40:28.220Z,9.443719
2022-09-12T11:41:28.164Z,9.443649
2022-09-12T11:42:28.171Z,9.443671
2022-09-12T11:43:28.152Z,9.443583
2022-09-12T11:44:28.147Z,9.443490